Time;durP1;ratioP1;P1;durP2;ratioP2;P2;SDS_P1;SDS_P2;PMS_P1;PMS_P2;Temp;Humidity;BMP_temperature;BMP_pressure;BME280_temperature;BME280_humidity;BME280_pressure;Samples;Min_cycle;Max_cycle;Signal;HPM_P1;HPM_P2
2023/02/26 19:49:08;;;;;;;1.00;0.70;;;21.30;55.60;;;;;;4953821;28;20464;-92
2023/02/26 19:51:35;;;;;;;2.70;0.90;;;21.30;56.00;;;;;;4956284;29;20445;-82
2023/02/26 19:54:02;;;;;;;1.50;0.80;;;21.30;56.10;;;;;;4954142;29;20449;-86
2023/02/26 19:56:29;;;;;;;1.20;0.90;;;21.30;55.70;;;;;;4952803;29;20529;-84
2023/02/26 19:58:56;;;;;;;1.97;1.03;;;21.30;55.80;;;;;;4955645;29;20528;-88
2023/02/26 20:01:23;;;;;;;1.73;1.23;;;21.40;56.10;;;;;;4956129;29;20456;-86
2023/02/26 20:03:50;;;;;;;2.03;1.30;;;21.40;55.90;;;;;;4956138;29;20450;-92
2023/02/26 20:06:19;;;;;;;1.10;0.80;;;21.40;56.00;;;;;;4955572;29;20451;-85
2023/02/26 20:08:46;;;;;;;1.73;0.90;;;21.60;56.10;;;;;;4955797;29;20481;-85
2023/02/26 20:11:13;;;;;;;1.40;0.90;;;21.40;55.90;;;;;;4955396;29;20447;-91
2023/02/26 20:13:40;;;;;;;1.60;0.87;;;21.40;55.90;;;;;;4955525;28;20887;-85
2023/02/26 20:16:08;;;;;;;1.33;0.80;;;21.40;55.90;;;;;;4955635;29;20442;-84
2023/02/26 20:18:35;;;;;;;1.00;0.80;;;21.40;55.90;;;;;;4955360;29;20493;-85
2023/02/26 20:21:05;;;;;;;1.67;0.80;;;21.40;55.80;;;;;;4955572;29;20461;-89
2023/02/26 20:23:35;;;;;;;1.10;0.80;;;21.40;55.80;;;;;;4955554;29;20454;-86
2023/02/26 20:26:03;;;;;;;1.13;0.70;;;21.60;55.80;;;;;;4955866;29;20542;-86
2023/02/26 20:28:30;;;;;;;5.23;1.10;;;21.40;55.90;;;;;;4955556;29;20794;-86
2023/02/26 20:30:57;;;;;;;2.60;0.80;;;21.40;56.00;;;;;;4955348;29;20441;-86
2023/02/26 20:33:24;;;;;;;1.33;0.90;;;21.40;56.00;;;;;;4955291;29;20451;-85
2023/02/26 20:35:52;;;;;;;1.33;1.00;;;21.40;56.00;;;;;;4955581;29;20513;-89
2023/02/26 20:38:21;;;;;;;1.20;0.90;;;21.40;56.00;;;;;;4955385;29;20485;-85
2023/02/26 20:40:49;;;;;;;1.83;0.97;;;21.40;56.00;;;;;;4955189;29;20550;-85
2023/02/26 20:43:17;;;;;;;2.20;0.80;;;21.40;56.00;;;;;;4955412;29;20473;-85
2023/02/26 20:45:43;;;;;;;1.30;0.90;;;21.40;56.00;;;;;;4955139;29;20446;-85
2023/02/26 20:48:10;;;;;;;1.20;0.97;;;21.40;55.90;;;;;;4955523;29;20438;-84
2023/02/26 20:50:38;;;;;;;1.20;1.00;;;21.40;56.00;;;;;;4954985;29;20469;-91
2023/02/26 20:53:05;;;;;;;1.30;0.93;;;21.40;55.90;;;;;;4955489;29;20452;-85
2023/02/26 20:55:32;;;;;;;1.53;0.97;;;21.40;56.10;;;;;;4955317;29;20438;-85
2023/02/26 20:58:00;;;;;;;1.30;1.00;;;21.40;56.00;;;;;;4955072;28;20999;-83
2023/02/26 21:00:27;;;;;;;1.10;0.90;;;21.40;55.90;;;;;;4958726;29;20431;-88
2023/02/26 21:02:54;;;;;;;1.70;0.90;;;21.40;56.00;;;;;;4958836;29;20443;-83
2023/02/26 21:05:21;;;;;;;1.30;0.90;;;21.40;56.00;;;;;;4958911;29;20481;-85
2023/02/26 21:07:49;;;;;;;1.80;1.00;;;21.40;56.00;;;;;;4958936;29;20438;-85
2023/02/26 21:10:17;;;;;;;1.20;0.90;;;21.40;56.00;;;;;;4958638;29;20493;-84
2023/02/26 21:12:44;;;;;;;1.50;1.03;;;21.40;56.00;;;;;;4958881;28;20466;-83
2023/02/26 21:15:13;;;;;;;1.63;0.93;;;21.40;56.20;;;;;;4958947;29;20453;-83
2023/02/26 21:17:43;;;;;;;1.40;1.10;;;21.40;56.10;;;;;;4959111;29;20489;-86
2023/02/26 21:20:12;;;;;;;1.40;1.17;;;21.40;56.10;;;;;;4958723;29;20812;-92
2023/02/26 21:22:39;;;;;;;1.47;1.10;;;21.40;56.20;;;;;;4958760;29;20446;-89
2023/02/26 21:25:07;;;;;;;1.40;0.87;;;21.40;56.10;;;;;;4959033;29;20618;-85
2023/02/26 21:27:35;;;;;;;2.23;1.03;;;21.40;56.00;;;;;;4958616;29;20454;-85
2023/02/26 21:30:02;;;;;;;1.30;1.00;;;21.40;56.20;;;;;;4958449;29;20508;-84
2023/02/26 21:32:30;;;;;;;1.70;1.10;;;21.40;56.20;;;;;;4958400;29;20502;-84
2023/02/26 21:34:58;;;;;;;1.70;1.60;;;21.40;56.40;;;;;;4958348;29;20441;-84
2023/02/26 21:37:26;;;;;;;2.47;1.13;;;21.30;56.10;;;;;;4958413;29;20457;-85
2023/02/26 21:39:53;;;;;;;1.40;1.17;;;21.30;55.90;;;;;;4958451;29;20451;-84
2023/02/26 21:42:19;;;;;;;1.20;1.00;;;21.30;56.00;;;;;;4958203;28;20462;-84
2023/02/26 21:44:46;;;;;;;1.70;0.97;;;21.30;55.90;;;;;;4958027;29;20449;-85
2023/02/26 21:47:13;;;;;;;1.30;1.20;;;21.40;56.00;;;;;;4958068;29;20949;-91
2023/02/26 21:49:41;;;;;;;1.57;1.23;;;21.30;55.90;;;;;;4957712;29;20473;-84
2023/02/26 21:52:08;;;;;;;1.27;1.17;;;21.30;55.90;;;;;;4958193;29;20442;-84
2023/02/26 21:54:35;;;;;;;1.40;1.10;;;21.30;55.80;;;;;;4958028;29;20450;-84
2023/02/26 21:57:02;;;;;;;1.10;0.90;;;21.30;55.80;;;;;;4957999;29;20446;-87
2023/02/26 21:59:29;;;;;;;1.43;1.33;;;21.30;55.80;;;;;;4957959;29;20580;-84
2023/02/26 22:01:56;;;;;;;1.70;1.07;;;21.30;55.80;;;;;;4958083;28;20456;-85
2023/02/26 22:04:23;;;;;;;1.40;1.30;;;21.20;55.70;;;;;;4958061;29;20440;-84
2023/02/26 22:06:51;;;;;;;1.20;1.10;;;21.20;55.80;;;;;;4957872;29;20450;-87
2023/02/26 22:09:18;;;;;;;1.60;1.33;;;21.40;55.90;;;;;;4957691;28;20453;-85
2023/02/26 22:11:45;;;;;;;1.20;1.00;;;21.20;55.60;;;;;;4957731;28;20467;-85
2023/02/26 22:14:13;;;;;;;1.20;1.00;;;21.20;55.60;;;;;;4957772;29;20794;-84
2023/02/26 22:16:39;;;;;;;1.53;1.10;;;21.20;55.70;;;;;;4957818;29;20442;-85
2023/02/26 22:19:06;;;;;;;1.13;1.03;;;21.20;55.70;;;;;;4957679;29;20486;-84
2023/02/26 22:21:33;;;;;;;1.43;1.20;;;21.10;55.50;;;;;;4957815;29;20479;-85
2023/02/26 22:24:02;;;;;;;1.10;0.93;;;21.10;55.40;;;;;;4957614;29;20453;-84
2023/02/26 22:26:29;;;;;;;2.03;1.00;;;21.10;55.50;;;;;;4950069;29;20458;-86
2023/02/26 22:28:58;;;;;;;1.10;0.90;;;21.30;55.70;;;;;;4957449;29;20438;-85
2023/02/26 22:31:24;;;;;;;1.60;1.30;;;21.10;55.40;;;;;;4957273;29;20442;-85
2023/02/26 22:33:51;;;;;;;1.10;0.90;;;21.10;55.40;;;;;;4957330;29;20446;-86
2023/02/26 22:36:18;;;;;;;1.37;1.00;;;21.10;55.40;;;;;;4957383;29;20806;-85
2023/02/26 22:38:45;;;;;;;1.20;1.10;;;21.10;55.40;;;;;;4957159;29;20493;-84
2023/02/26 22:41:13;;;;;;;1.17;0.97;;;21.20;55.50;;;;;;4957057;29;20455;-85
2023/02/26 22:43:40;;;;;;;1.10;0.90;;;21.00;55.40;;;;;;4957028;28;20472;-86
2023/02/26 22:46:07;;;;;;;1.53;1.03;;;21.00;55.30;;;;;;4957207;29;20434;-84
2023/02/26 22:48:34;;;;;;;1.20;1.00;;;21.00;55.90;;;;;;4957111;29;20490;-84
2023/02/26 22:51:01;;;;;;;1.20;0.90;;;21.00;55.40;;;;;;4956696;29;20475;-90
2023/02/26 22:53:27;;;;;;;1.60;1.20;;;21.00;55.30;;;;;;4956886;29;20449;-84
2023/02/26 22:55:54;;;;;;;1.30;1.00;;;21.00;55.30;;;;;;4956952;29;20799;-84
2023/02/26 22:58:22;;;;;;;1.20;0.90;;;21.00;55.30;;;;;;4956835;29;20493;-84
2023/02/26 23:00:51;;;;;;;1.20;0.90;;;21.00;55.30;;;;;;4956773;29;20540;-84
2023/02/26 23:03:18;;;;;;;2.07;1.00;;;21.00;55.40;;;;;;4956778;29;21004;-84
2023/02/26 23:05:45;;;;;;;1.20;1.10;;;20.90;55.20;;;;;;4956804;29;20453;-84
2023/02/26 23:08:12;;;;;;;1.23;1.10;;;20.90;55.30;;;;;;4956665;29;20462;-84
2023/02/26 23:10:38;;;;;;;1.20;1.10;;;20.90;55.30;;;;;;4956612;29;20472;-90
2023/02/26 23:13:05;;;;;;;1.17;1.07;;;20.90;55.30;;;;;;4956812;28;20461;-90
2023/02/26 23:15:34;;;;;;;1.30;1.20;;;20.90;55.30;;;;;;4956402;29;20474;-90
2023/02/26 23:18:00;;;;;;;1.20;1.00;;;21.00;55.30;;;;;;4956295;29;20452;-90
2023/02/26 23:20:27;;;;;;;1.50;1.00;;;20.90;55.30;;;;;;4956347;29;20446;-84
2023/02/26 23:22:54;;;;;;;1.30;1.20;;;20.90;55.30;;;;;;4955919;28;20446;-84
2023/02/26 23:25:21;;;;;;;1.37;1.13;;;20.90;55.30;;;;;;4956366;29;20450;-84
2023/02/26 23:27:47;;;;;;;1.10;0.90;;;20.90;55.30;;;;;;4956181;29;20943;-84
2023/02/26 23:30:15;;;;;;;1.63;1.10;;;20.90;55.30;;;;;;4956065;29;20955;-84
2023/02/26 23:32:43;;;;;;;1.30;0.90;;;20.80;55.20;;;;;;4956215;29;20517;-84
2023/02/26 23:35:10;;;;;;;1.10;1.00;;;20.80;55.20;;;;;;4956320;29;20945;-85
2023/02/26 23:37:37;;;;;;;1.30;1.10;;;20.80;55.20;;;;;;4956154;29;20448;-86
2023/02/26 23:40:06;;;;;;;2.20;1.47;;;20.80;55.20;;;;;;4955995;29;20490;-84
2023/02/26 23:42:32;;;;;;;1.20;1.00;;;20.80;55.10;;;;;;4955925;28;20508;-84
2023/02/26 23:44:59;;;;;;;1.80;1.00;;;20.80;55.30;;;;;;4955823;29;20452;-84
2023/02/26 23:47:26;;;;;;;1.40;1.10;;;20.80;55.30;;;;;;4955891;29;20493;-85
2023/02/26 23:49:54;;;;;;;1.20;1.00;;;20.80;55.20;;;;;;4955481;29;20489;-84
2023/02/26 23:52:24;;;;;;;1.10;0.80;;;20.80;55.30;;;;;;4955981;29;20450;-85
2023/02/26 23:54:51;;;;;;;1.40;1.13;;;20.80;55.20;;;;;;4955826;29;20450;-84
2023/02/26 23:57:18;;;;;;;2.43;1.20;;;20.80;55.30;;;;;;4955838;29;20430;-85
2023/02/26 23:59:45;;;;;;;1.60;1.20;;;20.80;55.30;;;;;;4955729;29;20493;-84
